Time;durP1;ratioP1;P1;durP2;ratioP2;P2;SDS_P1;SDS_P2;PMS_P1;PMS_P2;Temp;Humidity;BMP_temperature;BMP_pressure;BME280_temperature;BME280_humidity;BME280_pressure;Samples;Min_cycle;Max_cycle;Signal;HPM_P1;HPM_P2
2023/01/27 00:00:53;;;;;;;16.40;7.40;;;;;;;-2.91;100.00;95495.44;5010140;28;20049;-71
2023/01/27 00:03:23;;;;;;;20.65;8.05;;;;;;;-2.97;100.00;95505.50;5008717;28;20457;-72
2023/01/27 00:05:48;;;;;;;21.30;7.70;;;;;;;-2.90;100.00;95497.00;5005752;28;20421;-71
2023/01/27 00:08:15;;;;;;;18.70;8.07;;;;;;;-2.86;100.00;95498.25;4988275;28;20549;-71
2023/01/27 00:10:41;;;;;;;19.80;7.70;;;;;;;-2.98;100.00;95496.16;5004565;28;20050;-71
2023/01/27 00:13:30;;;;;;;16.92;6.78;;;;;;;-2.89;100.00;95498.63;5008560;28;20630;-71
2023/01/27 00:15:56;;;;;;;18.25;7.50;;;;;;;-2.82;100.00;95502.84;4992134;28;20053;-71
2023/01/27 00:18:22;;;;;;;14.60;5.95;;;;;;;-2.83;100.00;95503.84;5010283;28;20045;-71
2023/01/27 00:26:18;;;;;;;17.50;7.85;;;;;;;-3.03;100.00;95503.66;5004541;28;20441;-70
2023/01/27 00:28:45;;;;;;;20.23;8.13;;;;;;;-3.01;100.00;95493.97;5004779;28;20132;-71
2023/01/27 00:34:07;;;;;;;21.02;7.65;;;;;;;-3.04;100.00;95485.81;5006769;28;20046;-71
2023/01/27 00:36:35;;;;;;;14.10;6.35;;;;;;;-3.00;100.00;95497.34;5021475;28;20086;-68
2023/01/27 00:39:03;;;;;;;18.67;6.13;;;;;;;-3.00;100.00;95481.91;5029141;28;20090;-69
2023/01/27 00:41:29;;;;;;;12.02;6.00;;;;;;;-3.10;100.00;95482.19;5034074;28;20031;-68
2023/01/27 00:43:57;;;;;;;13.57;5.93;;;;;;;-3.04;100.00;95485.81;5012348;28;20041;-69
2023/01/27 00:46:24;;;;;;;14.57;5.68;;;;;;;-2.90;100.00;95481.56;5023950;28;20054;-68
2023/01/27 00:48:53;;;;;;;15.15;6.43;;;;;;;-3.08;100.00;95477.66;5039014;28;20022;-70
2023/01/27 00:51:20;;;;;;;22.42;6.82;;;;;;;-3.03;100.00;95493.34;5014416;28;20026;-68
2023/01/27 00:53:47;;;;;;;20.63;6.95;;;;;;;-3.13;100.00;95492.88;5013380;28;20033;-70
2023/01/27 00:56:13;;;;;;;15.60;6.35;;;;;;;-3.09;100.00;95488.94;5015674;28;20053;-69
2023/01/27 00:58:41;;;;;;;20.77;6.82;;;;;;;-3.15;100.00;95487.09;5017620;28;20036;-68
2023/01/27 01:01:10;;;;;;;14.68;5.60;;;;;;;-3.07;100.00;95497.28;5018438;28;20026;-69
2023/01/27 01:03:37;;;;;;;18.30;6.93;;;;;;;-3.04;100.00;95496.13;5039192;28;20048;-70
2023/01/27 01:06:06;;;;;;;21.23;7.60;;;;;;;-2.94;100.00;95500.94;5006630;28;20042;-71
2023/01/27 01:08:34;;;;;;;17.75;6.68;;;;;;;-2.99;100.00;95497.16;5022067;28;20049;-72
2023/01/27 01:10:59;;;;;;;13.40;5.65;;;;;;;-2.98;100.00;95501.31;5008353;28;20037;-72
2023/01/27 01:13:27;;;;;;;16.35;6.55;;;;;;;-2.84;100.00;95501.44;5011794;28;20052;-71
2023/01/27 01:15:53;;;;;;;15.30;5.85;;;;;;;-2.90;100.00;95507.31;5006178;28;20038;-72
2023/01/27 01:18:19;;;;;;;20.70;7.15;;;;;;;-3.01;100.00;95500.91;4991283;28;20055;-70
2023/01/27 01:20:46;;;;;;;17.35;7.15;;;;;;;-3.03;100.00;95498.50;4979807;28;20084;-71
2023/01/27 01:23:14;;;;;;;18.05;6.90;;;;;;;-2.99;100.00;95504.88;5012476;28;20108;-70
2023/01/27 01:25:40;;;;;;;18.08;6.13;;;;;;;-3.02;100.00;95505.22;5011746;28;20052;-71
2023/01/27 01:28:07;;;;;;;17.85;7.28;;;;;;;-3.02;100.00;95505.22;4994867;28;20045;-71
2023/01/27 01:30:34;;;;;;;13.02;5.82;;;;;;;-3.07;100.00;95501.63;5003859;28;20117;-71
2023/01/27 01:32:59;;;;;;;18.85;6.75;;;;;;;-3.03;100.00;95503.66;5010895;28;20045;-71
2023/01/27 01:35:25;;;;;;;18.98;6.40;;;;;;;-3.02;100.00;95505.22;5014958;28;20092;-71
2023/01/27 01:37:54;;;;;;;14.45;6.00;;;;;;;-3.03;100.00;95503.66;5034259;28;20081;-69
2023/01/27 01:40:21;;;;;;;15.48;6.35;;;;;;;-2.97;100.00;95508.06;5015262;28;20045;-67
2023/01/27 01:42:59;;;;;;;15.95;6.43;;;;;;;-2.99;100.00;95502.31;4998153;28;20033;-72
2023/01/27 01:45:30;;;;;;;13.77;6.10;;;;;;;-2.97;100.00;95495.19;5009598;28;20081;-71
2023/01/27 01:48:19;;;;;;;20.02;7.18;;;;;;;-2.94;100.00;95491.44;5004760;28;20050;-71
2023/01/27 01:50:51;;;;;;;20.63;7.07;;;;;;;-2.98;100.00;95485.88;5010589;28;20432;-71
2023/01/27 01:53:20;;;;;;;16.60;6.65;;;;;;;-3.04;100.00;95486.59;4990233;28;20038;-70
2023/01/27 01:55:47;;;;;;;20.60;6.97;;;;;;;-3.03;100.00;95472.75;5008331;28;20124;-71
2023/01/27 01:58:12;;;;;;;16.42;5.93;;;;;;;-2.99;100.00;95468.84;5011412;28;20034;-70
2023/01/27 02:00:39;;;;;;;10.75;5.57;;;;;;;-2.98;100.00;95470.41;5007533;28;20038;-71
2023/01/27 02:03:05;;;;;;;11.40;5.55;;;;;;;-3.01;100.00;95468.22;4993128;28;20038;-70
2023/01/27 02:05:36;;;;;;;14.80;6.18;;;;;;;-2.96;100.00;95468.47;5008805;28;20045;-70
2023/01/27 02:08:09;;;;;;;18.60;6.35;;;;;;;-2.98;100.00;95480.72;5011623;28;20038;-70
2023/01/27 02:10:34;;;;;;;15.15;6.15;;;;;;;-2.95;100.00;95484.69;5008803;28;20041;-71
2023/01/27 02:13:00;;;;;;;16.45;6.13;;;;;;;-2.86;100.00;95480.22;5011503;28;20083;-71
2023/01/27 02:15:28;;;;;;;14.70;5.70;;;;;;;-2.90;100.00;95476.41;4989667;28;20049;-71
2023/01/27 02:17:54;;;;;;;15.80;6.03;;;;;;;-2.96;100.00;95473.63;4992994;28;20045;-71
2023/01/27 02:20:41;;;;;;;13.98;5.85;;;;;;;-2.97;100.00;95477.16;4985634;28;20417;-71
2023/01/27 02:23:34;;;;;;;19.10;6.10;;;;;;;-2.98;100.00;95479.94;4987121;28;20250;-71
2023/01/27 02:26:08;;;;;;;15.85;5.53;;;;;;;-2.96;100.00;95478.75;5009855;28;20042;-71
2023/01/27 02:28:34;;;;;;;16.02;6.05;;;;;;;-2.99;100.00;95474.00;5011799;28;20045;-71
2023/01/27 02:30:59;;;;;;;18.80;6.50;;;;;;;-2.91;100.00;95480.00;5010003;28;20038;-71
2023/01/27 02:33:26;;;;;;;18.20;6.07;;;;;;;-2.99;100.00;95479.13;5011098;28;20037;-71
2023/01/27 02:36:20;;;;;;;16.58;6.72;;;;;;;-2.98;100.00;95480.72;5004945;28;20058;-70
2023/01/27 02:38:52;;;;;;;18.02;5.90;;;;;;;-2.91;100.00;95480.00;4998937;28;20062;-71
2023/01/27 02:41:21;;;;;;;17.40;5.60;;;;;;;-2.93;100.00;95472.47;4989197;28;20117;-71
2023/01/27 02:43:48;;;;;;;12.15;5.45;;;;;;;-2.90;100.00;95476.41;5007940;28;20046;-71
2023/01/27 02:46:14;;;;;;;13.98;5.70;;;;;;;-2.91;100.00;95472.25;5009103;28;20432;-71
2023/01/27 02:48:40;;;;;;;16.92;6.18;;;;;;;-2.87;100.00;95468.34;5011891;28;20050;-71
2023/01/27 02:51:05;;;;;;;16.05;6.57;;;;;;;-2.85;100.00;95474.09;5004396;28;20386;-70
2023/01/27 02:53:31;;;;;;;18.60;6.40;;;;;;;-2.80;100.00;95476.91;5011046;28;20049;-71
2023/01/27 02:55:56;;;;;;;16.92;7.22;;;;;;;-2.87;100.00;95469.13;5007456;28;20041;-71
2023/01/27 02:58:22;;;;;;;25.30;6.95;;;;;;;-2.91;100.00;95469.69;4992486;28;20057;-71
2023/01/27 03:00:47;;;;;;;17.70;6.60;;;;;;;-2.85;100.00;95471.50;5001956;28;20741;-71
2023/01/27 03:03:13;;;;;;;17.10;6.35;;;;;;;-2.84;100.00;95470.53;5007085;28;20088;-71
2023/01/27 03:05:39;;;;;;;16.02;6.28;;;;;;;-2.85;100.00;95479.25;5007487;28;20056;-69
2023/01/27 03:08:04;;;;;;;18.77;6.22;;;;;;;-2.91;100.00;95464.53;5008125;28;20041;-71
2023/01/27 03:10:30;;;;;;;15.35;6.18;;;;;;;-2.89;100.00;95463.34;5007570;28;20421;-71
2023/01/27 03:12:55;;;;;;;19.05;5.93;;;;;;;-2.88;100.00;95462.38;5004374;28;20041;-71
2023/01/27 03:18:26;;;;;;;17.10;6.45;;;;;;;-3.06;100.00;95468.00;5008775;28;20591;-71
2023/01/27 03:21:00;;;;;;;20.08;6.78;;;;;;;-2.89;100.00;95473.66;4987458;28;20050;-71
2023/01/27 03:23:26;;;;;;;26.50;7.55;;;;;;;-2.78;100.00;95465.44;5004357;28;20038;-71
2023/01/27 03:25:52;;;;;;;15.50;6.80;;;;;;;-2.93;100.00;95476.78;5006200;28;20112;-70
2023/01/27 03:28:17;;;;;;;21.25;7.55;;;;;;;-2.88;100.00;95464.94;5007922;28;20108;-70
2023/01/27 03:30:43;;;;;;;23.70;7.75;;;;;;;-2.82;100.00;95466.00;5007225;28;20042;-71
2023/01/27 03:33:08;;;;;;;20.75;7.03;;;;;;;-2.78;100.00;95464.63;5007844;28;20038;-71
2023/01/27 03:35:47;;;;;;;18.90;6.95;;;;;;;-2.87;100.00;95470.91;5010166;28;20030;-71
2023/01/27 03:46:31;;;;;;;22.57;7.60;;;;;;;-2.87;100.00;95460.63;5009052;28;20116;-70
2023/01/27 03:48:58;;;;;;;22.35;7.75;;;;;;;-2.89;100.00;95462.56;5007372;28;20295;-71
2023/01/27 03:51:25;;;;;;;22.50;7.40;;;;;;;-2.94;100.00;95454.59;4987114;28;20042;-71
2023/01/27 03:53:51;;;;;;;18.52;6.75;;;;;;;-2.94;100.00;95459.75;5003325;28;20501;-71
2023/01/27 03:56:19;;;;;;;28.83;7.15;;;;;;;-2.93;100.00;95456.19;4981804;28;20113;-71
2023/01/27 03:58:46;;;;;;;25.83;7.78;;;;;;;-2.94;100.00;95452.00;5004636;28;20425;-71
2023/01/27 04:01:20;;;;;;;18.77;6.63;;;;;;;-3.00;100.00;95456.94;5005959;28;20129;-70
2023/01/27 04:06:50;;;;;;;23.50;7.45;;;;;;;-2.90;100.00;95466.13;5009488;28;19961;-70
2023/01/27 04:09:22;;;;;;;20.58;8.00;;;;;;;-2.96;100.00;95468.47;5006093;28;20034;-70
2023/01/27 04:11:54;;;;;;;24.67;7.20;;;;;;;-2.91;100.00;95469.69;5006103;28;20073;-71
2023/01/27 04:14:20;;;;;;;20.63;7.18;;;;;;;-2.89;100.00;95460.00;4987137;28;20498;-70
2023/01/27 04:16:46;;;;;;;26.70;7.07;;;;;;;-2.89;100.00;95462.56;5009048;28;20045;-70
2023/01/27 04:19:12;;;;;;;26.58;7.70;;;;;;;-2.87;100.00;95450.31;5004342;28;20422;-70
2023/01/27 04:21:38;;;;;;;26.83;7.38;;;;;;;-2.83;100.00;95456.66;5006813;28;20718;-71
2023/01/27 04:24:07;;;;;;;25.25;8.38;;;;;;;-2.94;100.00;95459.75;4987654;28;20050;-70
2023/01/27 04:26:33;;;;;;;21.45;7.07;;;;;;;-2.90;100.00;95466.13;5001539;28;20072;-71
2023/01/27 04:29:03;;;;;;;26.30;7.55;;;;;;;-2.87;100.00;95463.19;4987498;28;20043;-70
2023/01/27 04:31:29;;;;;;;25.35;8.48;;;;;;;-2.95;100.00;95469.25;5002468;28;20120;-70
2023/01/27 04:33:55;;;;;;;20.70;7.10;;;;;;;-2.94;100.00;95470.03;5001268;28;20042;-70
2023/01/27 04:36:20;;;;;;;32.38;9.05;;;;;;;-2.94;100.00;95470.03;5006974;28;20045;-70
2023/01/27 04:38:46;;;;;;;24.90;7.47;;;;;;;-2.94;100.00;95470.03;5006736;28;20069;-72
2023/01/27 04:41:12;;;;;;;19.85;7.03;;;;;;;-3.01;100.00;95465.63;5008546;28;20042;-71
2023/01/27 04:43:38;;;;;;;31.13;9.18;;;;;;;-3.04;100.00;95466.00;5004183;28;20473;-71
2023/01/27 04:46:03;;;;;;;27.55;9.30;;;;;;;-3.04;100.00;95466.00;5006411;28;20100;-71
2023/01/27 04:48:29;;;;;;;35.42;9.35;;;;;;;-3.05;100.00;95464.41;5008553;28;20049;-71
2023/01/27 04:50:54;;;;;;;30.67;8.75;;;;;;;-3.09;100.00;95473.47;5006594;28;20041;-71
2023/01/27 04:53:20;;;;;;;26.55;8.32;;;;;;;-3.10;100.00;95471.91;5006179;28;20069;-71
2023/01/27 04:55:48;;;;;;;27.67;8.80;;;;;;;-3.09;100.00;95476.06;5008569;28;20042;-71
2023/01/27 04:58:15;;;;;;;35.53;9.30;;;;;;;-3.08;100.00;95472.50;5004586;28;20060;-71
2023/01/27 05:00:41;;;;;;;25.33;8.60;;;;;;;-3.12;100.00;95468.69;5007659;28;20088;-71
2023/01/27 05:03:08;;;;;;;28.50;8.20;;;;;;;-3.11;100.00;95475.47;4987035;28;20038;-71
2023/01/27 05:05:35;;;;;;;31.95;9.10;;;;;;;-3.05;100.00;95473.91;5007568;28;20042;-71
2023/01/27 05:08:05;;;;;;;27.58;8.52;;;;;;;-3.00;100.00;95477.53;5000444;28;20045;-71
2023/01/27 05:10:31;;;;;;;24.77;7.82;;;;;;;-3.03;100.00;95475.34;5007669;28;20114;-70
2023/01/27 05:12:57;;;;;;;24.40;8.25;;;;;;;-3.05;100.00;95473.91;5006084;28;20038;-71
2023/01/27 05:15:22;;;;;;;21.02;6.85;;;;;;;-3.15;100.00;95475.03;5005244;28;20456;-71
2023/01/27 05:17:48;;;;;;;27.70;8.75;;;;;;;-3.12;100.00;95484.16;5008073;28;20046;-70
2023/01/27 05:20:14;;;;;;;23.85;7.78;;;;;;;-3.12;100.00;95479.00;5006417;28;20069;-70
2023/01/27 05:22:41;;;;;;;25.30;7.68;;;;;;;-3.11;100.00;95478.03;5006077;28;20567;-71
2023/01/27 05:25:07;;;;;;;25.05;7.45;;;;;;;-3.09;100.00;95478.63;5009494;28;20034;-71
2023/01/27 05:27:33;;;;;;;29.90;7.72;;;;;;;-3.13;100.00;95482.56;4993921;28;20513;-70
2023/01/27 05:29:58;;;;;;;26.95;8.40;;;;;;;-3.03;100.00;95485.63;5009987;28;20046;-70
2023/01/27 05:32:24;;;;;;;23.88;8.57;;;;;;;-3.08;100.00;95485.38;5007482;28;20045;-71
2023/01/27 05:34:49;;;;;;;25.23;8.02;;;;;;;-3.09;100.00;95493.28;5006279;28;20060;-71
2023/01/27 05:37:15;;;;;;;24.67;8.07;;;;;;;-3.07;100.00;95492.13;5012779;28;20038;-70
2023/01/27 05:39:40;;;;;;;24.52;8.50;;;;;;;-3.06;100.00;95498.88;5007070;28;20049;-71
2023/01/27 05:42:06;;;;;;;26.77;7.90;;;;;;;-3.06;100.00;95495.50;4991457;28;20107;-70
2023/01/27 05:44:31;;;;;;;25.63;7.80;;;;;;;-3.00;100.00;95502.50;5010888;28;20034;-71
2023/01/27 05:46:57;;;;;;;26.45;8.30;;;;;;;-2.98;100.00;95506.47;5010761;28;20571;-70
2023/01/27 05:49:22;;;;;;;27.50;8.32;;;;;;;-2.90;100.00;95502.97;5009232;28;20049;-71
2023/01/27 05:51:48;;;;;;;31.70;9.68;;;;;;;-3.07;100.00;95511.94;5007487;28;20096;-70
2023/01/27 05:54:13;;;;;;;29.88;9.40;;;;;;;-3.12;100.00;95515.03;4990735;28;20047;-71
2023/01/27 05:56:39;;;;;;;40.47;11.70;;;;;;;-3.10;100.00;95513.09;5008252;28;20046;-71
2023/01/27 05:59:05;;;;;;;31.67;9.80;;;;;;;-3.07;100.00;95511.94;5006817;28;20456;-71
2023/01/27 06:01:33;;;;;;;29.83;10.02;;;;;;;-3.09;100.00;95509.53;5006197;28;20042;-71
2023/01/27 06:03:59;;;;;;;32.83;9.30;;;;;;;-3.17;100.00;95513.03;5010447;28;20041;-71
2023/01/27 06:06:26;;;;;;;28.30;8.82;;;;;;;-3.08;100.00;95518.84;4991367;28;20052;-71
2023/01/27 06:08:52;;;;;;;26.23;8.68;;;;;;;-3.16;100.00;95524.09;5009306;28;20073;-70
2023/01/27 06:11:19;;;;;;;28.55;8.50;;;;;;;-3.14;100.00;95527.31;5005690;28;20041;-71
2023/01/27 06:13:45;;;;;;;28.27;8.00;;;;;;;-3.05;100.00;95530.56;5012055;28;20060;-72
2023/01/27 06:16:14;;;;;;;25.50;8.57;;;;;;;-3.11;100.00;95526.94;5011343;28;20394;-71
2023/01/27 06:18:40;;;;;;;27.23;8.90;;;;;;;-3.10;100.00;95523.41;5006359;28;20049;-71
2023/01/27 06:21:08;;;;;;;28.60;8.70;;;;;;;-3.06;100.00;95519.47;5007068;28;20144;-71
2023/01/27 06:23:34;;;;;;;23.90;7.82;;;;;;;-3.02;100.00;95520.69;5007812;28;20037;-71
2023/01/27 06:26:06;;;;;;;31.17;9.10;;;;;;;-2.99;100.00;95534.97;5010215;28;20049;-71
2023/01/27 06:28:31;;;;;;;29.85;9.98;;;;;;;-3.10;100.00;95528.53;4980621;28;20046;-70
2023/01/27 06:31:23;;;;;;;34.88;10.10;;;;;;;-2.99;100.00;95537.53;5010207;28;20512;-71
2023/01/27 06:33:50;;;;;;;34.83;9.55;;;;;;;-2.98;100.00;95532.22;5004494;28;20069;-71
2023/01/27 06:36:18;;;;;;;36.13;9.48;;;;;;;-3.00;100.00;95536.75;5013737;28;20045;-71
2023/01/27 06:38:44;;;;;;;41.88;9.82;;;;;;;-2.99;100.00;95540.13;5009948;28;20509;-71
2023/01/27 06:41:10;;;;;;;32.55;9.77;;;;;;;-3.02;100.00;95536.13;5011562;28;20042;-71
2023/01/27 06:43:36;;;;;;;34.35;9.88;;;;;;;-2.93;100.00;95536.84;4994230;28;20041;-70
2023/01/27 06:46:01;;;;;;;32.30;9.60;;;;;;;-2.99;100.00;95540.94;5004103;28;20117;-70
2023/01/27 06:48:27;;;;;;;36.00;10.75;;;;;;;-2.98;100.00;95547.66;5021345;28;20097;-71
2023/01/27 06:50:54;;;;;;;37.85;10.35;;;;;;;-2.93;100.00;95549.72;5025357;28;20101;-70
2023/01/27 06:53:21;;;;;;;35.33;9.57;;;;;;;-2.88;100.00;95557.66;5022846;28;20034;-70
2023/01/27 06:55:46;;;;;;;38.00;10.25;;;;;;;-2.85;100.00;95556.50;5029365;28;20033;-70
2023/01/27 06:58:13;;;;;;;35.45;10.70;;;;;;;-2.90;100.00;95558.81;5024601;28;20038;-69
2023/01/27 07:00:40;;;;;;;38.47;9.70;;;;;;;-2.84;100.00;95558.09;5024066;28;20073;-70
2023/01/27 07:03:10;;;;;;;36.60;9.95;;;;;;;-2.79;100.00;95556.59;5003443;28;20065;-71
2023/01/27 07:05:38;;;;;;;33.58;9.45;;;;;;;-2.77;100.00;95556.41;5021498;28;20046;-71
2023/01/27 07:08:03;;;;;;;40.63;10.23;;;;;;;-2.77;100.00;95553.81;5014214;28;20116;-72
2023/01/27 07:10:29;;;;;;;41.17;10.98;;;;;;;-2.80;100.00;95565.28;5008299;28;20041;-71
2023/01/27 07:13:07;;;;;;;42.90;11.43;;;;;;;-2.78;100.00;95557.38;5001918;28;20038;-71
2023/01/27 07:15:33;;;;;;;40.22;10.60;;;;;;;-2.82;100.00;95556.13;5007803;28;20559;-71
2023/01/27 07:17:59;;;;;;;49.25;11.63;;;;;;;-2.75;100.00;95564.72;5006168;28;20049;-72
2023/01/27 07:20:28;;;;;;;49.60;12.30;;;;;;;-2.72;100.00;95561.78;5008514;28;20052;-71
2023/01/27 07:22:57;;;;;;;41.42;10.68;;;;;;;-2.78;100.00;95560.72;5009304;28;20497;-70
2023/01/27 07:25:23;;;;;;;42.50;11.23;;;;;;;-2.76;100.00;95550.25;5007323;28;20041;-71
2023/01/27 07:27:48;;;;;;;54.90;11.25;;;;;;;-2.72;100.00;95551.47;5006664;28;20528;-71
2023/01/27 07:30:14;;;;;;;45.78;11.25;;;;;;;-2.83;100.00;95550.19;4992916;28;20045;-72
2023/01/27 07:32:40;;;;;;;48.03;12.50;;;;;;;-2.83;100.00;95549.38;5005650;28;20057;-71
2023/01/27 07:35:06;;;;;;;43.78;11.07;;;;;;;-2.79;100.00;95550.59;5005310;28;20456;-71
2023/01/27 07:37:32;;;;;;;46.22;10.70;;;;;;;-2.74;100.00;95547.47;5007557;28;20037;-71
2023/01/27 07:39:58;;;;;;;37.50;11.13;;;;;;;-2.71;100.00;95553.06;5005918;28;20073;-71
2023/01/27 07:42:23;;;;;;;42.63;11.15;;;;;;;-2.81;100.00;95558.53;5006429;28;20046;-72
2023/01/27 07:44:49;;;;;;;44.85;10.65;;;;;;;-2.83;100.00;95562.25;5006727;28;20049;-71
2023/01/27 07:47:14;;;;;;;57.88;10.48;;;;;;;-2.76;100.00;95555.38;5007860;28;20429;-70
2023/01/27 07:49:40;;;;;;;42.25;9.60;;;;;;;-2.74;100.00;95558.59;4991540;28;20041;-72
2023/01/27 07:52:05;;;;;;;44.97;11.00;;;;;;;-2.82;100.00;95561.28;5006016;28;20041;-70
2023/01/27 07:54:31;;;;;;;50.42;11.00;;;;;;;-2.75;100.00;95562.16;5007655;28;20037;-70
2023/01/27 07:57:00;;;;;;;57.10;11.75;;;;;;;-2.74;100.00;95558.59;5008890;28;20046;-72
2023/01/27 07:59:26;;;;;;;38.83;11.02;;;;;;;-2.74;100.00;95558.59;5006982;28;20048;-71
2023/01/27 08:01:52;;;;;;;42.90;10.57;;;;;;;-2.72;100.00;95550.69;5006625;28;20128;-71
2023/01/27 08:04:17;;;;;;;46.50;10.43;;;;;;;-2.76;100.00;95560.53;4988617;28;20053;-69
2023/01/27 08:06:43;;;;;;;40.80;10.82;;;;;;;-2.70;100.00;95559.81;5008697;28;20049;-69
2023/01/27 08:09:09;;;;;;;49.85;10.20;;;;;;;-2.64;100.00;95548.78;5007139;28;20042;-71
2023/01/27 08:11:34;;;;;;;48.22;10.13;;;;;;;-2.65;100.00;95562.63;5005369;28;20826;-71
2023/01/27 08:14:00;;;;;;;39.85;10.27;;;;;;;-2.59;100.00;95557.72;4984493;28;20128;-72
2023/01/27 08:16:26;;;;;;;37.65;10.50;;;;;;;-2.64;100.00;95559.06;5005067;28;20038;-71
2023/01/27 08:18:52;;;;;;;40.97;10.30;;;;;;;-2.56;100.00;95565.09;4988878;28;20444;-71
2023/01/27 08:21:18;;;;;;;43.75;10.15;;;;;;;-2.59;100.00;95561.09;4990245;28;20042;-71
2023/01/27 08:23:44;;;;;;;36.88;10.90;;;;;;;-2.55;100.00;95566.69;4988394;28;20584;-71
2023/01/27 08:26:09;;;;;;;45.72;12.13;;;;;;;-2.62;100.00;95567.41;5010770;28;20057;-70
2023/01/27 08:28:36;;;;;;;40.55;10.50;;;;;;;-2.55;100.00;95571.84;5007035;28;20069;-71
2023/01/27 08:31:04;;;;;;;42.63;11.13;;;;;;;-2.52;100.00;95567.09;5007593;28;20037;-71
2023/01/27 08:33:30;;;;;;;39.95;10.18;;;;;;;-2.51;100.00;95568.69;5004672;28;20096;-71
2023/01/27 08:35:55;;;;;;;45.35;11.05;;;;;;;-2.50;100.00;95564.34;5002047;28;20038;-70
2023/01/27 08:38:21;;;;;;;38.33;11.00;;;;;;;-2.44;100.00;95563.63;4990491;28;20044;-70
2023/01/27 08:40:47;;;;;;;41.53;10.82;;;;;;;-2.50;100.00;95569.50;5001948;28;20525;-71
2023/01/27 08:43:15;;;;;;;44.30;11.05;;;;;;;-2.49;100.00;95576.25;5008362;28;20038;-71
2023/01/27 08:45:41;;;;;;;39.03;10.88;;;;;;;-2.47;100.00;95579.41;5007485;28;20054;-71
2023/01/27 08:48:07;;;;;;;37.35;11.63;;;;;;;-2.45;100.00;95587.78;5005716;28;20053;-71
2023/01/27 08:50:33;;;;;;;43.05;10.68;;;;;;;-2.39;100.00;95591.41;5007502;28;20037;-71
2023/01/27 08:53:00;;;;;;;42.45;9.80;;;;;;;-2.39;100.00;95597.34;4986481;28;20045;-71
2023/01/27 08:55:30;;;;;;;47.10;11.40;;;;;;;-2.34;100.00;95595.00;5004578;28;20080;-71
2023/01/27 08:57:56;;;;;;;48.13;11.13;;;;;;;-2.29;100.00;95597.81;5005963;28;20038;-71
2023/01/27 09:00:22;;;;;;;39.03;11.00;;;;;;;-2.28;100.00;95599.41;5010789;28;20053;-74
2023/01/27 09:02:49;;;;;;;46.72;11.57;;;;;;;-2.30;100.00;95601.41;5009065;28;20060;-71
2023/01/27 09:05:16;;;;;;;46.10;10.50;;;;;;;-2.24;100.00;95604.19;5010637;28;20113;-72
2023/01/27 09:07:43;;;;;;;49.58;12.00;;;;;;;-2.17;100.00;95599.88;5009918;28;20050;-73
2023/01/27 09:10:09;;;;;;;44.50;10.38;;;;;;;-2.16;100.00;95593.75;5010371;28;20505;-72
2023/01/27 09:12:35;;;;;;;47.38;11.38;;;;;;;-1.95;100.00;95598.09;4989480;28;20038;-72
2023/01/27 09:15:00;;;;;;;36.22;10.10;;;;;;;-2.00;100.00;95590.88;5011081;28;20038;-72
2023/01/27 09:17:26;;;;;;;33.70;9.63;;;;;;;-2.05;100.00;95595.81;4980292;28;20038;-72
2023/01/27 09:19:52;;;;;;;35.63;10.40;;;;;;;-2.00;100.00;95596.03;5009813;28;20405;-72
2023/01/27 09:22:17;;;;;;;39.92;11.57;;;;;;;-1.80;100.00;95596.16;5010309;28;20121;-72
2023/01/27 09:24:43;;;;;;;39.72;9.88;;;;;;;-1.90;100.00;95605.25;4994734;28;20034;-73
2023/01/27 09:27:09;;;;;;;47.25;9.60;;;;;;;-1.84;100.00;95599.31;5011653;28;20054;-72
2023/01/27 09:29:35;;;;;;;35.17;10.15;;;;;;;-1.79;100.00;95597.00;4992128;28;20038;-73
2023/01/27 09:32:02;;;;;;;33.75;10.40;;;;;;;-1.88;100.00;95608.44;5011461;28;20509;-72
2023/01/27 09:34:27;;;;;;;32.50;10.18;;;;;;;-1.89;100.00;95601.69;5011112;28;20034;-74
2023/01/27 09:37:01;;;;;;;38.70;10.55;;;;;;;-1.83;100.00;95606.09;4979163;28;20041;-74
2023/01/27 09:39:29;;;;;;;31.67;9.50;;;;;;;-1.80;100.00;95606.50;5010151;28;20137;-73
2023/01/27 09:42:16;;;;;;;44.40;9.80;;;;;;;-1.89;100.00;95614.59;4992311;28;20294;-73
2023/01/27 09:45:17;;;;;;;38.60;11.10;;;;;;;-2.05;100.00;95616.47;5009508;28;20117;-73
2023/01/27 09:48:02;;;;;;;42.05;11.00;;;;;;;-2.05;100.00;95619.03;4983673;28;20030;-72
2023/01/27 09:50:39;;;;;;;;;;;;;;;-2.02;100.00;95613.50;5008367;28;20501;-74
2023/01/27 09:53:13;;;;;;;37.40;9.95;;;;;;;-2.00;100.00;95616.69;5007291;28;19929;-73
2023/01/27 09:55:39;;;;;;;;;;;;;;;-1.90;100.00;95608.63;5009620;28;20446;-73
2023/01/27 09:58:26;;;;;;;37.22;11.00;;;;;;;-2.09;100.00;95607.50;4993347;28;20036;-73
2023/01/27 10:01:03;;;;;;;47.05;10.93;;;;;;;-1.94;100.00;95610.78;5009042;28;20065;-73
2023/01/27 10:03:57;;;;;;;40.03;10.40;;;;;;;-2.07;100.00;95608.09;5009463;28;20041;-72
2023/01/27 10:06:35;;;;;;;52.38;12.68;;;;;;;-1.98;100.00;95609.56;5006754;28;20100;-72
2023/01/27 10:09:34;;;;;;;44.03;11.25;;;;;;;-2.11;100.00;95617.22;5005365;28;20116;-73
2023/01/27 10:12:02;;;;;;;40.53;10.45;;;;;;;-2.00;100.00;95621.03;5000690;28;20044;-73
2023/01/27 10:14:58;;;;;;;48.30;11.10;;;;;;;-1.98;100.00;95619.88;5009512;28;20571;-75
2023/01/27 10:17:38;;;;;;;41.25;11.75;;;;;;;-1.93;100.00;95614.94;4976798;28;20082;-73
2023/01/27 10:20:19;;;;;;;39.45;11.48;;;;;;;-2.02;100.00;95618.66;5004561;28;20044;-73
2023/01/27 10:22:56;;;;;;;30.20;10.10;;;;;;;-2.11;100.00;95619.78;5006882;28;20045;-73
2023/01/27 10:25:42;;;;;;;40.83;11.73;;;;;;;-2.03;100.00;95626.59;5003491;28;20077;-72
2023/01/27 10:28:13;;;;;;;42.67;12.27;;;;;;;-2.27;100.00;95616.50;5007886;28;20497;-72
2023/01/27 10:31:03;;;;;;;51.42;13.10;;;;;;;-2.14;100.00;95610.63;5001100;28;20050;-71
2023/01/27 10:33:35;;;;;;;41.28;11.57;;;;;;;-2.16;100.00;95616.97;5005169;28;20452;-71
2023/01/27 10:36:24;;;;;;;40.38;11.50;;;;;;;-2.05;100.00;95624.19;5009752;28;20186;-73
2023/01/27 10:39:10;;;;;;;42.05;11.52;;;;;;;-1.97;100.00;95626.66;4995060;28;20069;-74
2023/01/27 10:41:47;;;;;;;45.55;12.15;;;;;;;-2.01;100.00;95625.41;5011810;28;20060;-73
2023/01/27 10:44:40;;;;;;;37.55;11.75;;;;;;;-1.84;100.00;95635.44;5003503;28;20042;-73
2023/01/27 10:47:18;;;;;;;45.47;11.55;;;;;;;-1.85;100.00;95623.53;5008447;28;20416;-73
2023/01/27 10:49:52;;;;;;;41.00;11.32;;;;;;;-2.01;100.00;95622.03;5006655;28;20045;-72
2023/01/27 10:52:59;;;;;;;40.10;11.40;;;;;;;-1.97;100.00;95631.81;5004458;28;20568;-73
2023/01/27 10:55:35;;;;;;;43.22;10.30;;;;;;;-2.01;100.00;95630.56;4977699;28;20218;-72
2023/01/27 10:58:29;;;;;;;42.80;11.63;;;;;;;-2.13;100.00;95621.75;4987461;28;20034;-74
2023/01/27 11:00:56;;;;;;;48.67;11.73;;;;;;;-2.13;100.00;95627.69;5009058;28;20049;-74
2023/01/27 11:03:32;;;;;;;42.42;10.73;;;;;;;-2.04;100.00;95636.13;5005479;28;20046;-74
2023/01/27 11:06:10;;;;;;;40.90;10.18;;;;;;;-2.06;100.00;95626.97;5005202;28;20497;-74
2023/01/27 11:08:40;;;;;;;40.63;11.82;;;;;;;-2.11;100.00;95630.09;5002459;28;20050;-74
2023/01/27 11:14:21;;;;;;;38.13;10.45;;;;;;;-2.15;100.00;95628.88;5001417;28;20034;-73
2023/01/27 11:16:50;;;;;;;35.10;11.23;;;;;;;-2.17;100.00;95625.69;4991260;28;20119;-76
2023/01/27 11:19:25;;;;;;;40.97;11.43;;;;;;;-2.10;100.00;95616.22;5010950;28;20042;-74
2023/01/27 11:21:53;;;;;;;41.92;11.77;;;;;;;-2.13;100.00;95619.16;5010803;28;20046;-73
2023/01/27 11:24:29;;;;;;;45.00;12.35;;;;;;;-2.30;100.00;95618.63;5011628;28;20091;-71
2023/01/27 11:27:04;;;;;;;40.13;11.38;;;;;;;-2.23;100.00;95621.28;5012286;28;20062;-73
2023/01/27 11:29:44;;;;;;;41.40;12.38;;;;;;;-2.06;100.00;95617.44;5007050;28;20038;-73
2023/01/27 11:32:19;;;;;;;31.42;11.68;;;;;;;-2.24;100.00;95614.50;5001456;28;20424;-73
2023/01/27 11:34:47;;;;;;;41.53;11.55;;;;;;;-2.19;100.00;95614.75;5006773;28;20037;-73
2023/01/27 11:37:31;;;;;;;34.85;10.73;;;;;;;-2.06;100.00;95617.44;4982520;28;20038;-74
2023/01/27 11:39:57;;;;;;;33.40;11.63;;;;;;;-2.11;100.00;95617.22;5003042;28;20493;-72
2023/01/27 11:42:32;;;;;;;33.22;10.35;;;;;;;-2.14;100.00;95604.66;5009828;28;20042;-73
2023/01/27 11:44:59;;;;;;;33.42;12.10;;;;;;;-2.13;100.00;95611.44;5000628;28;20045;-73
2023/01/27 11:47:35;;;;;;;41.90;11.95;;;;;;;-1.99;100.00;95612.34;5003967;28;20084;-72
2023/01/27 11:50:03;;;;;;;40.33;11.95;;;;;;;-2.01;100.00;95609.13;4987122;28;20041;-73